Time;durP1;ratioP1;P1;durP2;ratioP2;P2;SDS_P1;SDS_P2;PMS_P1;PMS_P2;Temp;Humidity;BMP_temperature;BMP_pressure;BME280_temperature;BME280_humidity;BME280_pressure;Samples;Min_cycle;Max_cycle;Signal;HPM_P1;HPM_P2
2022/07/03 00:00:09;;;;;;;32.85;30.55;;;;;;;21.28;100.00;101287.66;6100493;23;20400;-88
2022/07/03 00:03:15;;;;;;;31.73;29.70;;;;;;;21.32;100.00;101281.72;6102363;23;20025;-89
2022/07/03 00:06:02;;;;;;;33.40;30.85;;;;;;;20.38;100.00;101289.47;6042382;23;20106;-87
2022/07/03 00:08:48;;;;;;;;;;;;;;;;;;;;;
2022/07/03 00:11:41;;;;;;;31.38;29.27;;;;;;;21.05;100.00;101282.66;6103131;23;20022;-87
2022/07/03 00:14:21;;;;;;;31.55;29.45;;;;;;;20.90;100.00;101286.09;6100870;23;20022;-89
2022/07/03 00:17:09;;;;;;;31.02;28.73;;;;;;;20.31;100.00;101278.91;6101296;23;20061;-86
2022/07/03 00:19:50;;;;;;;33.50;30.92;;;;;;;20.68;100.00;101288.94;6097363;23;20046;-89
2022/07/03 00:22:30;;;;;;;32.97;30.23;;;;;;;19.70;100.00;101289.13;6102407;23;20077;-87
2022/07/03 00:25:16;;;;;;;33.55;30.92;;;;;;;19.54;100.00;101279.19;6102567;23;20026;-87
2022/07/03 00:27:50;;;;;;;34.17;31.67;;;;;;;19.42;100.00;101288.22;6103191;23;20029;-87
2022/07/03 00:30:47;;;;;;;32.72;30.20;;;;;;;19.73;100.00;101282.38;6102580;23;20097;-88
2022/07/03 00:33:31;;;;;;;34.58;32.10;;;;;;;19.93;100.00;101281.78;6102319;23;20033;-89
2022/07/03 00:36:41;;;;;;;34.33;31.63;;;;;;;20.54;100.00;101280.47;6103692;23;20022;-88
2022/07/03 00:39:14;;;;;;;34.55;31.95;;;;;;;20.78;100.00;101278.19;6102872;23;20026;-88
2022/07/03 00:53:30;;;;;;;32.85;30.48;;;;;;;20.46;100.00;101258.53;6065854;23;20022;-88
2022/07/03 00:56:12;;;;;;;31.55;29.08;;;;;;;20.31;100.00;101265.44;6101912;23;20027;-87
2022/07/03 00:58:52;;;;;;;32.15;29.65;;;;;;;20.51;100.00;101255.84;6100840;23;20460;-86
2022/07/03 01:01:21;;;;;;;34.78;32.45;;;;;;;20.27;100.00;101263.50;6100628;23;20081;-86
2022/07/03 01:04:29;;;;;;;;;;;;;;;;;;;;;
2022/07/03 01:13:38;;;;;;;32.35;30.15;;;;;;;20.22;100.00;101268.88;6097498;23;20032;-88
2022/07/03 01:16:28;;;;;;;32.25;29.95;;;;;;;20.27;100.00;101267.03;6084556;23;20030;-88
2022/07/03 01:22:16;;;;;;;;;;;;;;;;;;;;;
2022/07/03 01:28:23;;;;;;;37.60;34.80;;;;;;;19.64;100.00;101261.31;6074432;23;20018;-88
2022/07/03 01:31:01;;;;;;;33.85;31.35;;;;;;;19.75;100.00;101261.41;6101460;23;20029;-88
2022/07/03 01:33:45;;;;;;;32.15;30.02;;;;;;;20.26;100.00;101257.28;6102095;23;20085;-87
2022/07/03 01:36:26;;;;;;;38.45;35.85;;;;;;;19.40;100.00;101257.22;6101846;23;20026;-87
2022/07/03 01:39:11;;;;;;;32.63;30.05;;;;;;;18.96;100.00;101262.59;6099884;23;20470;-89
2022/07/03 01:42:17;;;;;;;31.23;28.48;;;;;;;19.64;100.00;101264.00;6099968;23;20030;-87
2022/07/03 01:44:59;;;;;;;34.88;32.17;;;;;;;19.49;100.00;101274.56;6095282;23;20030;-88
2022/07/03 01:47:31;;;;;;;31.38;28.88;;;;;;;19.55;100.00;101267.38;6099539;23;20361;-88
2022/07/03 01:50:05;;;;;;;35.92;33.22;;;;;;;19.88;100.00;101258.31;6099393;23;20028;-88
2022/07/03 01:52:52;;;;;;;35.90;33.00;;;;;;;19.38;100.00;101278.19;6100559;23;20436;-88
2022/07/03 01:55:22;;;;;;;32.67;30.15;;;;;;;19.80;100.00;101274.94;6099788;23;20527;-88
2022/07/03 01:58:05;;;;;;;30.95;28.38;;;;;;;19.16;100.00;101284.41;6098749;23;20032;-86
2022/07/03 02:03:07;;;;;;;32.70;30.23;;;;;;;19.72;100.00;101276.19;6098569;23;20026;-87
2022/07/03 02:05:47;;;;;;;33.67;30.60;;;;;;;20.00;100.00;101275.16;6099425;23;20458;-88
2022/07/03 02:08:36;;;;;;;34.78;32.22;;;;;;;19.74;100.00;101279.44;6100092;23;20050;-86
2022/07/03 02:11:12;;;;;;;32.80;30.08;;;;;;;20.00;100.00;101277.84;6099038;23;20026;-85
2022/07/03 02:14:04;;;;;;;33.65;31.42;;;;;;;20.07;100.00;101272.25;6099332;23;20023;-87
2022/07/03 02:16:42;;;;;;;33.50;31.13;;;;;;;19.96;100.00;101267.81;6100373;23;20023;-83
2022/07/03 02:19:16;;;;;;;34.28;31.77;;;;;;;19.38;100.00;101272.81;6098881;23;20030;-87
2022/07/03 02:22:05;;;;;;;33.38;30.77;;;;;;;19.32;100.00;101271.94;6099365;23;20029;-86
2022/07/03 02:24:42;;;;;;;36.10;33.60;;;;;;;19.88;100.00;101271.78;6099760;23;20022;-87
2022/07/03 02:27:16;;;;;;;35.80;33.03;;;;;;;20.11;100.00;101284.13;6099437;23;20022;-86
2022/07/03 02:29:48;;;;;;;33.00;30.52;;;;;;;20.16;100.00;101280.69;6099687;23;20026;-85
2022/07/03 02:32:32;;;;;;;33.47;30.45;;;;;;;19.41;100.00;101281.19;6099978;23;20093;-86
2022/07/03 02:35:13;;;;;;;32.03;29.52;;;;;;;18.81;100.00;101291.97;6100517;23;20018;-86
2022/07/03 02:38:02;;;;;;;32.35;29.95;;;;;;;18.86;100.00;101292.88;6099918;23;20025;-85
2022/07/03 02:40:36;;;;;;;34.17;31.17;;;;;;;18.89;100.00;101289.69;6098953;23;20049;-85
2022/07/03 02:43:16;;;;;;;30.88;28.35;;;;;;;19.28;100.00;101283.47;6099000;23;20026;-87
2022/07/03 02:46:48;;;;;;;31.58;29.27;;;;;;;19.30;100.00;101279.44;6099465;23;20018;-84
2022/07/03 02:48:54;;;;;;;29.60;27.38;;;;;;;19.65;100.00;101281.78;6098513;23;20061;-84
2022/07/03 02:51:23;;;;;;;;;;;;;;;19.54;100.00;101287.28;6099877;23;20018;-87
2022/07/03 02:54:01;;;;;;;28.65;26.48;;;;;;;18.91;100.00;101282.19;6099412;23;20346;-84
2022/07/03 02:56:44;;;;;;;29.25;26.60;;;;;;;18.65;100.00;101274.75;6099700;23;20022;-86
2022/07/03 02:59:40;;;;;;;33.92;28.83;;;;;;;19.00;100.00;101287.94;6098407;23;20065;-86
2022/07/03 03:02:37;;;;;;;30.50;28.10;;;;;;;19.69;100.00;101292.88;6098446;23;20019;-87
2022/07/03 03:05:09;;;;;;;29.58;27.35;;;;;;;19.50;100.00;101295.03;6099097;23;20085;-86
2022/07/03 03:07:56;;;;;;;29.27;27.08;;;;;;;19.52;100.00;101302.91;6100153;23;20027;-87
2022/07/03 03:10:44;;;;;;;29.02;26.90;;;;;;;19.61;100.00;101306.78;6101316;23;20026;-86
2022/07/03 03:13:38;;;;;;;27.25;25.25;;;;;;;20.03;100.00;101303.44;6099648;23;20023;-88
2022/07/03 03:16:12;;;;;;;29.65;27.27;;;;;;;20.27;100.00;101301.25;6084020;23;20023;-85
2022/07/03 03:19:17;;;;;;;28.40;26.20;;;;;;;19.51;100.00;101315.53;6101747;23;20396;-84
2022/07/03 03:21:57;;;;;;;28.83;26.50;;;;;;;20.06;100.00;101303.78;6101105;23;20026;-86
2022/07/03 03:24:36;;;;;;;28.95;27.05;;;;;;;20.20;100.00;101308.75;6102706;23;20027;-86
2022/07/03 03:27:09;;;;;;;27.42;25.25;;;;;;;20.19;100.00;101307.13;6100958;23;20022;-84
2022/07/03 03:29:51;;;;;;;27.70;25.50;;;;;;;20.50;100.00;101306.31;6101061;23;20029;-86
2022/07/03 03:32:50;;;;;;;26.65;24.73;;;;;;;20.66;100.00;101301.88;6101324;23;20029;-86
2022/07/03 03:35:17;;;;;;;27.73;25.52;;;;;;;20.61;100.00;101307.25;6103253;23;20030;-86
2022/07/03 03:37:57;;;;;;;27.38;25.38;;;;;;;20.67;100.00;101292.72;6101805;23;20057;-86
2022/07/03 03:40:33;;;;;;;27.30;25.27;;;;;;;20.76;100.00;101293.06;6102582;23;20022;-87
2022/07/03 03:43:05;;;;;;;26.48;24.48;;;;;;;20.52;100.00;101306.91;6100788;23;20030;-87
2022/07/03 03:45:33;;;;;;;26.33;24.52;;;;;;;20.88;100.00;101307.16;6101904;23;20452;-86
2022/07/03 03:48:03;;;;;;;27.58;25.38;;;;;;;20.95;100.00;101307.75;6102170;23;20022;-87
2022/07/03 03:50:42;;;;;;;27.45;25.45;;;;;;;21.00;100.00;101305.06;6100870;23;20022;-84
2022/07/03 03:53:20;;;;;;;27.45;25.35;;;;;;;21.20;100.00;101312.47;6101218;23;20022;-86
2022/07/03 03:56:06;;;;;;;27.63;25.52;;;;;;;21.12;100.00;101304.88;6101727;23;20030;-86
2022/07/03 03:58:47;;;;;;;28.13;25.85;;;;;;;21.31;100.00;101310.63;6102417;23;20026;-88
2022/07/03 04:01:14;;;;;;;28.70;26.55;;;;;;;21.46;100.00;101309.91;6101981;23;20031;-87
2022/07/03 04:03:41;;;;;;;26.48;24.40;;;;;;;21.56;100.00;101307.25;6102863;23;20029;-85
2022/07/03 04:06:30;;;;;;;26.90;24.90;;;;;;;21.52;100.00;101314.25;6101967;23;20026;-87
2022/07/03 04:08:59;;;;;;;27.25;25.08;;;;;;;21.64;100.00;101309.44;6103323;23;20340;-86
2022/07/03 04:11:29;;;;;;;27.25;24.90;;;;;;;21.79;100.00;101314.09;6105952;23;20026;-87
2022/07/03 04:14:00;;;;;;;27.10;25.00;;;;;;;21.90;100.00;101314.91;6105475;23;20447;-87
2022/07/03 04:16:29;;;;;;;26.92;25.00;;;;;;;21.68;100.00;101309.72;6104179;23;20033;-86
2022/07/03 04:18:56;;;;;;;26.92;25.02;;;;;;;21.59;100.00;101306.72;6104502;23;20018;-87
2022/07/03 04:21:26;;;;;;;27.92;25.70;;;;;;;21.90;100.00;101312.19;6103729;23;20037;-88
2022/07/03 04:24:38;;;;;;;27.00;25.00;;;;;;;21.82;100.00;101310.03;6103458;23;20079;-87
2022/07/03 04:27:08;;;;;;;27.63;25.45;;;;;;;21.73;100.00;101312.44;6104313;23;20026;-87
2022/07/03 04:29:41;;;;;;;27.08;25.08;;;;;;;22.11;100.00;101319.25;6103197;23;20029;-87
2022/07/03 04:32:10;;;;;;;26.50;24.40;;;;;;;22.00;100.00;101316.81;6103413;23;20439;-86
2022/07/03 04:34:51;;;;;;;26.20;24.23;;;;;;;21.97;100.00;101315.47;6103047;23;20399;-86
2022/07/03 04:37:38;;;;;;;26.10;24.20;;;;;;;22.17;100.00;101318.22;6104099;23;20026;-87
2022/07/03 04:40:19;;;;;;;26.65;24.75;;;;;;;22.03;100.00;101317.13;6104460;23;20034;-85
2022/07/03 04:42:54;;;;;;;25.50;23.67;;;;;;;21.95;100.00;101318.44;6102979;23;20018;-87
2022/07/03 04:45:38;;;;;;;26.15;24.25;;;;;;;22.31;100.00;101317.72;6102803;23;20023;-86
2022/07/03 04:48:15;;;;;;;26.63;24.63;;;;;;;22.34;100.00;101320.69;6105078;23;20081;-88
2022/07/03 04:51:17;;;;;;;25.73;23.75;;;;;;;22.37;100.00;101320.16;6103329;23;20030;-88
2022/07/03 04:53:51;;;;;;;25.52;23.67;;;;;;;22.57;100.00;101322.03;6103615;23;20059;-86
2022/07/03 04:56:44;;;;;;;26.00;24.10;;;;;;;22.73;100.00;101322.84;6104631;23;20022;-86
2022/07/03 04:59:26;;;;;;;26.88;24.85;;;;;;;22.83;100.00;101319.31;6102590;23;20019;-88
2022/07/03 05:01:53;;;;;;;24.98;23.08;;;;;;;22.86;100.00;101321.47;6096822;23;20023;-88
2022/07/03 05:04:20;;;;;;;25.27;23.42;;;;;;;22.82;100.00;101315.78;6100783;23;20029;-87
2022/07/03 05:06:52;;;;;;;26.05;24.05;;;;;;;23.04;100.00;101314.69;6101921;23;20038;-85
2022/07/03 05:09:21;;;;;;;25.40;23.40;;;;;;;22.97;100.00;101322.28;6102902;23;20362;-86
2022/07/03 05:11:48;;;;;;;24.92;23.13;;;;;;;22.95;100.00;101314.44;6104327;23;20309;-87
2022/07/03 05:14:15;;;;;;;24.77;22.70;;;;;;;23.35;100.00;101326.22;6101818;23;20022;-87
2022/07/03 05:16:43;;;;;;;24.88;22.98;;;;;;;23.32;100.00;101319.47;6101651;23;20018;-87
2022/07/03 05:19:10;;;;;;;24.67;22.88;;;;;;;23.23;100.00;101325.72;6101543;23;20321;-85
2022/07/03 05:21:37;;;;;;;25.40;23.55;;;;;;;23.35;100.00;101330.84;6101544;23;20030;-86
2022/07/03 05:24:04;;;;;;;25.15;23.45;;;;;;;23.39;100.00;101335.44;6102119;23;20030;-87
2022/07/03 05:26:32;;;;;;;25.25;23.45;;;;;;;23.45;100.00;101330.78;6102881;23;20014;-86
2022/07/03 05:28:59;;;;;;;25.20;23.38;;;;;;;23.59;100.00;101339.16;6102951;23;20459;-85
2022/07/03 05:31:26;;;;;;;25.48;23.48;;;;;;;23.74;100.00;101339.09;6104813;23;20026;-85
2022/07/03 05:33:54;;;;;;;25.40;23.60;;;;;;;23.72;100.00;101333.97;6102954;23;20022;-85
2022/07/03 05:36:21;;;;;;;26.02;24.08;;;;;;;23.90;100.00;101340.63;6103064;23;20019;-86
2022/07/03 05:41:32;;;;;;;26.27;24.23;;;;;;;24.26;100.00;101340.41;6102776;23;20355;-88
2022/07/03 05:43:58;;;;;;;25.67;23.77;;;;;;;24.38;100.00;101340.03;6102614;23;20030;-86
2022/07/03 05:46:26;;;;;;;25.90;24.00;;;;;;;24.35;100.00;101337.91;6102804;23;20037;-87
2022/07/03 05:48:55;;;;;;;25.80;23.85;;;;;;;24.55;100.00;101340.50;6102541;23;20324;-86
2022/07/03 05:51:21;;;;;;;27.17;25.20;;;;;;;24.73;100.00;101341.69;6100379;23;20443;-88
2022/07/03 05:53:48;;;;;;;25.05;23.25;;;;;;;24.66;100.00;101336.59;6101088;23;20029;-86
2022/07/03 05:56:15;;;;;;;25.73;23.92;;;;;;;24.88;100.00;101333.38;6101976;23;20022;-86
2022/07/03 05:58:43;;;;;;;26.10;24.20;;;;;;;25.21;100.00;101324.66;6101579;23;20030;-87
2022/07/03 06:01:10;;;;;;;26.52;24.73;;;;;;;25.25;100.00;101334.66;6100406;23;20022;-87
2022/07/03 06:03:36;;;;;;;26.10;23.88;;;;;;;25.48;100.00;101332.22;6099587;23;20026;-87
2022/07/03 06:06:05;;;;;;;26.40;24.38;;;;;;;25.62;100.00;101340.47;6099022;23;20022;-88
2022/07/03 06:08:32;;;;;;;26.60;24.38;;;;;;;25.56;100.00;101348.66;6096821;23;20041;-88
2022/07/03 06:10:59;;;;;;;26.48;24.58;;;;;;;25.84;100.00;101339.91;6097548;23;20018;-87
2022/07/03 06:13:25;;;;;;;26.27;24.38;;;;;;;25.75;100.00;101334.28;6097502;23;20030;-88
2022/07/03 06:15:52;;;;;;;27.17;25.17;;;;;;;25.90;100.00;101347.72;6098620;23;20026;-87
2022/07/03 06:18:19;;;;;;;26.65;24.48;;;;;;;26.08;100.00;101339.84;6098503;23;20018;-88
2022/07/03 06:20:46;;;;;;;26.80;24.85;;;;;;;26.09;100.00;101341.47;6100377;23;20415;-86
2022/07/03 06:23:14;;;;;;;27.45;25.23;;;;;;;26.29;100.00;101338.41;6099436;23;20022;-87
2022/07/03 06:25:41;;;;;;;27.48;25.35;;;;;;;26.29;100.00;101335.69;6100656;23;20025;-88
2022/07/03 06:28:08;;;;;;;28.10;25.90;;;;;;;26.59;100.00;101337.13;6099487;23;20026;-86
2022/07/03 06:30:35;;;;;;;29.00;26.85;;;;;;;26.74;100.00;101330.59;6100078;23;20317;-89
2022/07/03 06:33:01;;;;;;;27.13;24.95;;;;;;;26.91;100.00;101335.50;6100412;23;20032;-86
2022/07/03 06:35:28;;;;;;;27.67;25.67;;;;;;;27.28;100.00;101331.78;6099548;23;20022;-87
2022/07/03 06:37:55;;;;;;;27.30;25.10;;;;;;;27.49;100.00;101325.91;6099833;23;20018;-87
2022/07/03 06:40:23;;;;;;;27.08;24.77;;;;;;;27.55;100.00;101338.34;6099392;23;20340;-88
2022/07/03 06:42:50;;;;;;;26.80;24.80;;;;;;;27.59;100.00;101331.16;6098864;23;20025;-86
2022/07/03 06:45:17;;;;;;;27.23;25.27;;;;;;;27.54;100.00;101328.56;6098961;23;20022;-87
2022/07/03 06:47:44;;;;;;;27.45;25.45;;;;;;;27.71;100.00;101323.25;6099754;23;20201;-88
2022/07/03 06:50:11;;;;;;;26.10;24.10;;;;;;;27.61;100.00;101318.03;6099193;23;20029;-87
2022/07/03 06:52:38;;;;;;;26.17;24.38;;;;;;;27.69;100.00;101321.97;6099155;23;20026;-88
2022/07/03 06:55:06;;;;;;;26.85;24.83;;;;;;;27.41;100.00;101327.44;6099818;23;20456;-86
2022/07/03 06:57:35;;;;;;;27.90;25.55;;;;;;;27.72;100.00;101324.06;6100063;23;20026;-88
2022/07/03 07:00:02;;;;;;;27.38;25.58;;;;;;;27.90;100.00;101320.41;6099244;23;20018;-86
2022/07/03 07:02:29;;;;;;;28.10;26.00;;;;;;;28.28;100.00;101325.50;6096680;23;20097;-87
2022/07/03 07:04:56;;;;;;;26.77;24.52;;;;;;;28.30;100.00;101334.19;6099173;23;20022;-87
2022/07/03 07:07:22;;;;;;;27.63;25.08;;;;;;;28.41;100.00;101319.19;6099092;23;20447;-87
2022/07/03 07:09:49;;;;;;;28.25;25.98;;;;;;;28.37;100.00;101320.91;6100031;23;20023;-88
2022/07/03 07:12:16;;;;;;;29.10;26.77;;;;;;;28.35;100.00;101319.59;6101079;23;20019;-89
2022/07/03 07:14:44;;;;;;;30.75;28.40;;;;;;;28.34;100.00;101323.44;6101650;23;20018;-86
2022/07/03 07:17:12;;;;;;;29.83;27.45;;;;;;;28.47;100.00;101317.13;6099371;23;20495;-88
2022/07/03 07:19:39;;;;;;;29.05;26.85;;;;;;;28.73;100.00;101322.75;6100198;23;20028;-88
2022/07/03 07:22:06;;;;;;;28.63;26.33;;;;;;;28.71;100.00;101324.97;6099101;23;20379;-88
2022/07/03 07:24:33;;;;;;;30.33;27.80;;;;;;;28.86;100.00;101318.31;6097510;23;20029;-88
2022/07/03 07:27:00;;;;;;;28.70;26.30;;;;;;;29.18;100.00;101315.25;6098803;23;20022;-86
2022/07/03 07:29:27;;;;;;;29.55;26.98;;;;;;;28.70;100.00;101326.13;6098827;23;20093;-88
2022/07/03 07:31:58;;;;;;;30.35;28.08;;;;;;;29.04;100.00;101322.75;6102512;23;20018;-85
2022/07/03 07:34:25;;;;;;;29.92;27.55;;;;;;;29.33;100.00;101319.47;6104593;23;20321;-88
2022/07/03 07:36:52;;;;;;;29.15;26.80;;;;;;;29.45;100.00;101319.66;6108964;23;20026;-87
2022/07/03 07:39:19;;;;;;;31.45;29.40;;;;;;;29.25;100.00;101314.78;6103079;23;20019;-85
2022/07/03 07:41:46;;;;;;;31.90;29.42;;;;;;;29.26;100.00;101310.09;6108504;23;20018;-85
2022/07/03 07:44:19;;;;;;;49.30;32.05;;;;;;;29.61;100.00;101305.50;6106976;23;20019;-85
2022/07/03 07:46:46;;;;;;;28.38;25.98;;;;;;;29.69;100.00;101309.41;6108072;23;20027;-85
2022/07/03 07:49:14;;;;;;;33.95;30.50;;;;;;;29.94;100.00;101316.81;6111162;23;20018;-86
2022/07/03 07:51:41;;;;;;;45.95;32.75;;;;;;;29.98;100.00;101309.56;6110018;23;20064;-86
2022/07/03 07:54:08;;;;;;;31.05;28.95;;;;;;;30.18;100.00;101315.53;6108746;23;20026;-86
2022/07/03 07:56:35;;;;;;;29.90;27.60;;;;;;;30.10;91.36;101317.13;6110977;23;20483;-84
2022/07/03 07:59:03;;;;;;;30.25;27.92;;;;;;;29.99;100.00;101319.41;6108268;23;20050;-86
2022/07/03 08:07:06;;;;;;;27.63;25.42;;;;;;;30.55;84.38;101312.06;6108490;23;20034;-85
2022/07/03 08:09:33;;;;;;;27.75;25.48;;;;;;;30.66;71.91;101306.25;6109801;23;20030;-87
2022/07/03 08:12:00;;;;;;;26.45;24.20;;;;;;;30.65;64.29;101307.38;6107528;23;20014;-85
2022/07/03 08:14:28;;;;;;;26.70;24.70;;;;;;;30.85;69.97;101314.09;6105478;23;20029;-86
2022/07/03 08:16:55;;;;;;;26.65;24.73;;;;;;;31.02;69.47;101314.03;6108958;23;20028;-86
2022/07/03 08:19:24;;;;;;;28.27;26.15;;;;;;;31.38;68.79;101315.47;6107446;23;20436;-86
2022/07/03 08:21:51;;;;;;;27.67;25.42;;;;;;;31.30;71.03;101322.59;6110098;23;20026;-84
2022/07/03 08:24:18;;;;;;;28.58;26.48;;;;;;;31.10;69.17;101315.13;6106509;23;20368;-84
2022/07/03 08:26:44;;;;;;;29.60;27.40;;;;;;;31.29;71.54;101320.16;6104865;23;20508;-87
2022/07/03 08:29:57;;;;;;;31.52;29.15;;;;;;;31.10;76.55;101313.16;6103738;23;20018;-84
2022/07/03 08:32:24;;;;;;;29.40;27.35;;;;;;;31.31;68.97;101328.88;6059176;23;20093;-84
2022/07/03 08:34:52;;;;;;;30.58;28.63;;;;;;;31.07;65.44;101319.31;6103325;23;20451;-86
2022/07/03 08:37:27;;;;;;;30.83;28.48;;;;;;;31.27;64.37;101321.31;6103083;23;20030;-86
2022/07/03 08:40:11;;;;;;;29.20;26.95;;;;;;;31.41;66.33;101326.59;6104629;23;20033;-86
2022/07/03 08:42:39;;;;;;;28.48;26.52;;;;;;;31.55;60.84;101318.09;6109988;23;20067;-86
2022/07/03 08:45:09;;;;;;;28.58;26.58;;;;;;;31.62;60.87;101323.03;6107596;23;20435;-86
2022/07/03 08:47:38;;;;;;;26.10;24.25;;;;;;;31.70;61.07;101319.44;6105022;23;20061;-85
2022/07/03 08:50:07;;;;;;;27.65;25.45;;;;;;;31.78;58.29;101310.34;6107224;23;20026;-86
2022/07/03 08:52:35;;;;;;;26.58;24.70;;;;;;;31.76;62.13;101325.53;6109350;23;20026;-87
2022/07/03 08:55:04;;;;;;;27.17;24.85;;;;;;;31.79;61.69;101327.63;6103970;23;20022;-88
2022/07/03 08:57:32;;;;;;;27.30;25.30;;;;;;;31.30;63.75;101325.34;6103533;23;20455;-85
2022/07/03 09:00:03;;;;;;;28.35;26.15;;;;;;;31.22;64.67;101321.50;6107572;23;20060;-87
2022/07/03 09:02:32;;;;;;;26.55;24.55;;;;;;;31.23;60.63;101317.63;6108025;23;20100;-87
2022/07/03 09:04:59;;;;;;;27.60;25.65;;;;;;;30.92;62.35;101319.88;6108411;23;20071;-87
2022/07/03 09:07:28;;;;;;;27.38;25.33;;;;;;;31.24;63.39;101326.66;6105072;23;20056;-84
2022/07/03 09:09:56;;;;;;;27.35;25.25;;;;;;;31.37;64.22;101320.16;6103097;23;20018;-83
2022/07/03 09:12:31;;;;;;;28.25;26.13;;;;;;;31.44;55.09;101331.41;6100676;23;20098;-85
2022/07/03 09:14:59;;;;;;;27.45;25.55;;;;;;;31.48;53.94;101329.59;6103485;23;20032;-88
2022/07/03 09:17:28;;;;;;;26.73;24.73;;;;;;;31.66;52.25;101332.25;6103899;23;20022;-85
2022/07/03 09:20:15;;;;;;;27.38;25.15;;;;;;;31.69;52.41;101324.13;6102539;23;20019;-86
2022/07/03 09:22:54;;;;;;;27.45;25.35;;;;;;;31.65;56.65;101327.88;6101601;23;20089;-86
2022/07/03 09:25:28;;;;;;;27.55;25.45;;;;;;;31.51;48.65;101319.09;6104013;23;20034;-86
2022/07/03 09:27:54;;;;;;;27.60;25.42;;;;;;;31.87;49.18;101322.06;6102481;23;20026;-85
2022/07/03 09:30:21;;;;;;;27.80;25.55;;;;;;;31.69;47.69;101323.34;6101665;23;20379;-87
2022/07/03 09:32:49;;;;;;;26.17;24.38;;;;;;;31.67;47.39;101325.59;6102898;23;20019;-87
2022/07/03 09:35:20;;;;;;;28.35;26.42;;;;;;;31.78;46.88;101323.28;6102883;23;20014;-84
2022/07/03 09:37:54;;;;;;;27.93;25.70;;;;;;;31.86;46.54;101325.13;6102578;23;20038;-87
2022/07/03 09:40:23;;;;;;;25.55;23.55;;;;;;;31.87;48.79;101324.00;6103582;23;20022;-87
2022/07/03 09:43:04;;;;;;;26.90;24.90;;;;;;;31.99;48.33;101326.03;6102857;23;20031;-86
2022/07/03 09:45:51;;;;;;;29.35;27.17;;;;;;;32.16;45.59;101331.34;6102566;23;20053;-86
2022/07/03 09:48:29;;;;;;;27.85;25.75;;;;;;;32.28;46.92;101325.91;6100571;23;20026;-87
2022/07/03 09:51:17;;;;;;;26.70;24.90;;;;;;;32.74;45.81;101323.16;6101281;23;20468;-88
2022/07/03 09:53:57;;;;;;;28.27;26.38;;;;;;;32.54;45.04;101322.91;6102251;23;20029;-87
2022/07/03 09:56:26;;;;;;;25.63;23.77;;;;;;;32.25;46.72;101318.34;6101613;23;20033;-86
2022/07/03 09:59:05;;;;;;;29.48;26.70;;;;;;;32.39;46.44;101318.03;6102245;23;20102;-87
2022/07/03 10:01:33;;;;;;;26.80;24.75;;;;;;;32.47;45.11;101310.84;6101083;23;20105;-85
2022/07/03 10:04:14;;;;;;;25.30;23.35;;;;;;;32.67;46.49;101323.72;6102172;23;20018;-86
2022/07/03 10:06:55;;;;;;;24.90;23.00;;;;;;;32.21;43.67;101314.66;6101186;23;20452;-87
2022/07/03 10:09:25;;;;;;;28.73;26.67;;;;;;;32.35;44.81;101306.13;6103998;23;20057;-84
2022/07/03 10:11:53;;;;;;;31.48;29.38;;;;;;;32.34;43.34;101308.06;6103111;23;20019;-86
2022/07/03 10:14:21;;;;;;;25.95;23.95;;;;;;;31.87;44.76;101296.53;6103692;23;20026;-84
2022/07/03 10:16:49;;;;;;;28.02;26.02;;;;;;;32.07;44.89;101301.22;6102295;23;20033;-87
2022/07/03 10:19:19;;;;;;;26.05;24.15;;;;;;;31.99;44.83;101293.06;6101909;23;20022;-85
2022/07/03 10:21:51;;;;;;;28.15;26.25;;;;;;;32.04;46.88;101298.34;6102938;23;20085;-84
2022/07/03 10:24:18;;;;;;;27.42;25.00;;;;;;;31.86;47.23;101287.50;6103594;23;20022;-86
2022/07/03 10:26:48;;;;;;;28.73;26.73;;;;;;;31.86;45.83;101279.25;6102411;23;20023;-87
2022/07/03 10:29:16;;;;;;;28.73;26.40;;;;;;;31.75;45.51;101282.75;6103312;23;20093;-88
2022/07/03 10:31:47;;;;;;;29.80;27.80;;;;;;;31.63;46.30;101281.53;6102623;23;20085;-86
2022/07/03 10:34:19;;;;;;;29.33;27.23;;;;;;;31.84;48.53;101280.75;6104609;23;20023;-85
2022/07/03 10:36:48;;;;;;;29.00;26.90;;;;;;;31.71;46.08;101279.84;6102583;23;20022;-86
2022/07/03 10:39:27;;;;;;;30.13;27.60;;;;;;;31.63;47.50;101273.31;6102468;23;20313;-85
2022/07/03 10:44:54;;;;;;;27.08;25.02;;;;;;;31.74;48.30;101267.41;6106298;23;20348;-87
2022/07/03 10:47:43;;;;;;;26.75;24.75;;;;;;;31.82;47.03;101269.28;6103929;23;20041;-87
2022/07/03 10:50:12;;;;;;;27.27;24.95;;;;;;;31.82;46.31;101266.53;6104808;23;20030;-88
2022/07/03 10:52:39;;;;;;;27.15;25.00;;;;;;;32.19;45.81;101266.69;6104045;23;20444;-86
2022/07/03 10:55:07;;;;;;;28.02;26.13;;;;;;;32.57;49.60;101264.50;6103180;23;20034;-88
2022/07/03 10:57:36;;;;;;;31.23;28.88;;;;;;;32.41;57.28;101266.28;6102821;23;20026;-88
2022/07/03 11:00:17;;;;;;;32.70;30.08;;;;;;;32.60;66.88;101261.06;6101060;23;20024;-88
2022/07/03 11:02:49;;;;;;;31.50;29.00;;;;;;;32.97;63.58;101254.75;6103028;23;20027;-86
2022/07/03 11:05:21;;;;;;;29.05;27.02;;;;;;;33.10;53.45;101248.13;6103342;23;20035;-87
2022/07/03 11:08:08;;;;;;;29.48;26.92;;;;;;;33.28;51.73;101245.91;6102891;23;20049;-86
2022/07/03 11:10:41;;;;;;;26.33;24.52;;;;;;;33.88;43.70;101244.09;6103476;23;20026;-88
2022/07/03 11:13:20;;;;;;;26.98;24.88;;;;;;;33.88;43.72;101241.34;6102877;23;20061;-86
2022/07/03 11:15:56;;;;;;;25.60;23.75;;;;;;;34.39;45.24;101241.53;6102074;23;20101;-87
2022/07/03 11:18:31;;;;;;;26.73;24.20;;;;;;;34.94;42.99;101233.41;6102539;23;20033;-86
2022/07/03 11:21:25;;;;;;;26.85;24.65;;;;;;;34.77;44.61;101234.63;6103485;23;20041;-87
2022/07/03 11:24:25;;;;;;;29.10;26.98;;;;;;;33.94;43.55;101228.91;6103733;23;20351;-87
2022/07/03 11:27:26;;;;;;;28.23;25.55;;;;;;;33.93;49.86;101224.56;6078546;23;20026;-88
2022/07/03 11:30:01;;;;;;;28.83;26.65;;;;;;;34.02;54.71;101221.66;6014062;23;20107;-87
2022/07/03 11:32:57;;;;;;;28.15;26.05;;;;;;;34.20;52.79;101220.19;6014389;23;20038;-86
2022/07/03 11:35:47;;;;;;;28.27;26.05;;;;;;;34.67;51.49;101210.31;6076923;23;20019;-87
2022/07/03 11:38:17;;;;;;;29.25;26.85;;;;;;;34.31;49.54;101200.34;6101621;23;20054;-86
2022/07/03 11:40:45;;;;;;;28.92;26.88;;;;;;;33.72;50.89;101201.97;6102269;23;20022;-86
2022/07/03 11:43:12;;;;;;;27.55;25.42;;;;;;;33.56;53.16;101204.69;6100790;23;20026;-88
2022/07/03 11:45:42;;;;;;;29.17;26.70;;;;;;;33.19;58.10;101210.25;6102648;23;20054;-85
2022/07/03 11:48:10;;;;;;;29.70;27.55;;;;;;;32.79;59.35;101207.44;6101959;23;20026;-87
2022/07/03 11:50:38;;;;;;;28.65;26.25;;;;;;;32.98;54.29;101193.13;6102885;23;20026;-85
2022/07/03 11:53:25;;;;;;;27.42;25.52;;;;;;;33.69;48.51;101195.22;6104912;23;20026;-85
2022/07/03 11:55:56;;;;;;;30.02;27.50;;;;;;;33.54;54.11;101198.72;6102239;23;20029;-85
2022/07/03 11:58:24;;;;;;;28.60;26.30;;;;;;;32.31;62.77;101196.06;6102078;23;20030;-85
2022/07/03 12:00:53;;;;;;;28.73;26.58;;;;;;;31.68;68.56;101192.66;6102075;23;20058;-85
2022/07/03 12:03:26;;;;;;;30.25;27.70;;;;;;;32.51;71.33;101188.91;6101418;23;20032;-87
2022/07/03 12:05:58;;;;;;;27.80;25.20;;;;;;;32.72;67.38;101190.72;6102453;23;20106;-87
2022/07/03 12:08:26;;;;;;;27.88;25.38;;;;;;;32.39;66.25;101192.41;6100929;23;20448;-86
2022/07/03 12:11:02;;;;;;;27.90;25.60;;;;;;;31.98;70.83;101185.13;6100695;23;20019;-87
2022/07/03 12:13:30;;;;;;;29.70;26.77;;;;;;;31.71;73.42;101184.59;6100689;23;20026;-88
2022/07/03 12:16:07;;;;;;;29.15;26.20;;;;;;;32.39;73.29;101191.63;6101758;23;20030;-87
2022/07/03 12:18:50;;;;;;;30.77;27.83;;;;;;;32.73;68.96;101168.38;6101600;23;20018;-88
2022/07/03 12:21:16;;;;;;;;;;;;;;;32.99;67.63;101172.72;6104009;23;20089;-86